createdAt,value
2017-08-26T00:02:17.420Z,99.90
2017-08-26T00:07:19.116Z,99.90
2017-08-26T00:12:22.800Z,99.90
2017-08-26T00:17:24.473Z,99.90
2017-08-26T00:22:26.185Z,99.90
2017-08-26T00:27:28.881Z,99.90
2017-08-26T00:32:30.761Z,99.90
2017-08-26T00:37:32.436Z,99.90
2017-08-26T00:42:35.135Z,99.90
2017-08-26T00:47:36.812Z,99.90
2017-08-26T00:52:38.676Z,99.90
2017-08-26T00:57:40.360Z,99.90
2017-08-26T01:02:42.051Z,99.90
2017-08-26T01:07:44.033Z,99.90
2017-08-26T01:12:45.703Z,99.90
2017-08-26T01:17:49.424Z,99.90
2017-08-26T01:22:52.302Z,99.90
2017-08-26T01:27:53.999Z,99.90
2017-08-26T01:32:56.169Z,99.90
2017-08-26T01:37:57.958Z,99.90
2017-08-26T01:42:59.635Z,99.90
2017-08-26T01:48:01.310Z,99.90
2017-08-26T01:53:03.079Z,99.90
2017-08-26T01:58:06.005Z,99.90
2017-08-26T02:03:10.219Z,99.90
2017-08-26T02:08:11.966Z,99.90
2017-08-26T02:13:13.660Z,99.90
2017-08-26T02:18:15.334Z,99.90
2017-08-26T02:23:16.981Z,99.90
2017-08-26T02:28:20.733Z,99.90
2017-08-26T02:33:23.938Z,99.90
2017-08-26T02:38:40.549Z,99.90
2017-08-26T02:43:57.409Z,99.90
2017-08-26T02:49:13.862Z,99.90
2017-08-26T02:54:30.482Z,99.90
2017-08-26T02:59:47.010Z,99.90
2017-08-26T03:05:03.489Z,99.90
2017-08-26T03:10:19.912Z,99.90
2017-08-26T03:15:36.259Z,99.90
2017-08-26T03:20:38.778Z,99.90
2017-08-26T03:25:40.397Z,99.90
2017-08-26T03:30:42.107Z,99.90
2017-08-26T03:35:43.865Z,99.90
2017-08-26T03:40:45.571Z,99.90
2017-08-26T03:45:47.201Z,99.90
2017-08-26T03:50:48.943Z,99.90
2017-08-26T03:55:50.612Z,99.90
2017-08-26T04:00:52.283Z,99.90
2017-08-26T04:05:53.955Z,99.90
2017-08-26T04:10:55.630Z,99.90
2017-08-26T04:15:57.276Z,99.90
2017-08-26T04:20:58.952Z,99.90
2017-08-26T04:26:00.709Z,99.90
2017-08-26T04:31:02.625Z,99.90
2017-08-26T04:36:04.273Z,99.90
2017-08-26T04:41:05.973Z,99.90
2017-08-26T04:46:09.240Z,99.90
2017-08-26T04:51:12.901Z,99.90
2017-08-26T04:56:14.528Z,99.90
2017-08-26T05:01:16.246Z,99.90
2017-08-26T05:06:18.993Z,99.90
2017-08-26T05:11:20.820Z,99.90
2017-08-26T05:16:23.918Z,99.90
2017-08-26T05:21:25.552Z,99.90
2017-08-26T05:26:27.940Z,99.90
2017-08-26T05:31:30.583Z,99.90
2017-08-26T05:36:32.815Z,99.90
2017-08-26T05:41:34.522Z,99.90
2017-08-26T05:46:36.217Z,99.90
2017-08-26T05:51:38.196Z,99.90
2017-08-26T05:56:39.949Z,99.90
2017-08-26T06:01:42.900Z,99.90
2017-08-26T06:06:44.633Z,99.90
2017-08-26T06:11:46.425Z,99.90
2017-08-26T06:16:48.300Z,99.90
2017-08-26T06:21:49.956Z,99.90
2017-08-26T06:26:51.617Z,99.90
2017-08-26T06:31:53.398Z,99.90
2017-08-26T06:36:56.089Z,99.90
2017-08-26T06:41:58.356Z,99.90
2017-08-26T06:47:00.162Z,99.90
2017-08-26T06:52:01.833Z,99.90
2017-08-26T06:57:04.633Z,99.90
2017-08-26T07:02:07.952Z,99.90
2017-08-26T07:07:10.657Z,99.90
2017-08-26T07:12:13.356Z,99.90
2017-08-26T07:17:14.952Z,99.90
2017-08-26T07:22:16.657Z,99.90
2017-08-26T07:27:18.305Z,99.90
2017-08-26T07:32:21.040Z,99.90
2017-08-26T07:37:22.742Z,99.90
2017-08-26T07:42:24.417Z,99.90
2017-08-26T07:47:26.209Z,99.90
2017-08-26T07:52:27.847Z,99.90
2017-08-26T07:57:29.519Z,99.90
2017-08-26T08:02:31.194Z,99.90
2017-08-26T08:07:32.865Z,99.90
2017-08-26T08:12:34.541Z,99.90
2017-08-26T08:17:36.816Z,99.90
2017-08-26T08:22:38.525Z,99.90
2017-08-26T08:27:40.275Z,99.90
2017-08-26T08:32:41.972Z,99.90
2017-08-26T08:37:43.646Z,97.30
2017-08-26T08:42:45.319Z,93.90
2017-08-26T08:47:46.961Z,89.40
2017-08-26T08:52:48.666Z,83.50
2017-08-26T08:57:50.308Z,84.50
2017-08-26T09:02:52.008Z,81.70
2017-08-26T09:07:54.244Z,81.90
2017-08-26T09:12:55.974Z,83.60
2017-08-26T09:17:57.641Z,79.00
2017-08-26T09:22:59.315Z,82.80
2017-08-26T09:28:00.987Z,79.90
2017-08-26T09:33:02.644Z,73.80
2017-08-26T09:38:04.437Z,71.00
2017-08-26T09:43:06.045Z,72.00
2017-08-26T09:48:08.805Z,71.00
2017-08-26T09:53:10.424Z,70.80
2017-08-26T09:58:12.674Z,69.50
2017-08-26T10:03:14.382Z,66.60
2017-08-26T10:08:16.182Z,65.40
2017-08-26T10:13:17.857Z,66.60
2017-08-26T10:18:19.528Z,68.10
2017-08-26T10:23:21.411Z,65.80
2017-08-26T10:28:24.030Z,67.60
2017-08-26T10:33:25.785Z,65.10
2017-08-26T10:38:27.468Z,66.30
2017-08-26T10:43:29.129Z,67.60
2017-08-26T10:48:30.852Z,68.80
2017-08-26T10:53:32.437Z,67.20
2017-08-26T10:58:34.233Z,65.00
2017-08-26T11:03:35.867Z,63.30
2017-08-26T11:08:37.561Z,65.90
2017-08-26T11:13:39.337Z,65.20
2017-08-26T11:18:41.106Z,65.30
2017-08-26T11:23:42.771Z,67.20
2017-08-26T11:28:44.464Z,67.60
2017-08-26T11:33:46.117Z,66.40
2017-08-26T11:38:48.817Z,67.40
2017-08-26T11:43:50.480Z,66.90
2017-08-26T11:48:52.152Z,63.90
2017-08-26T11:53:53.842Z,67.40
2017-08-26T11:58:55.512Z,62.80
2017-08-26T12:03:57.184Z,65.60
2017-08-26T12:08:58.953Z,62.50
2017-08-26T12:14:00.576Z,62.70
2017-08-26T12:19:02.299Z,60.40
2017-08-26T12:24:04.005Z,61.60
2017-08-26T12:29:05.760Z,58.60
2017-08-26T12:34:07.705Z,61.80
2017-08-26T12:39:09.536Z,59.10
2017-08-26T12:44:12.314Z,60.10
2017-08-26T12:49:13.977Z,59.30
2017-08-26T12:54:15.658Z,59.60
2017-08-26T12:59:17.324Z,58.80
2017-08-26T13:04:19.149Z,58.30
2017-08-26T13:09:20.876Z,61.90
2017-08-26T13:14:22.658Z,60.70
2017-08-26T13:19:24.324Z,61.80
2017-08-26T13:24:25.989Z,56.90
2017-08-26T13:29:27.677Z,58.10
2017-08-26T13:34:29.368Z,58.30
2017-08-26T13:39:31.693Z,57.70
2017-08-26T13:44:33.367Z,60.30
2017-08-26T13:49:35.008Z,57.90
2017-08-26T13:54:36.688Z,58.50
2017-08-26T13:59:39.049Z,58.30
2017-08-26T14:04:40.817Z,60.70
2017-08-26T14:09:42.549Z,61.80
2017-08-26T14:14:44.187Z,59.80
2017-08-26T14:19:45.892Z,61.20
2017-08-26T14:24:47.565Z,62.70
2017-08-26T14:29:49.213Z,61.00
2017-08-26T14:34:50.911Z,60.30
2017-08-26T14:39:52.561Z,56.20
2017-08-26T14:44:54.257Z,55.30
2017-08-26T14:49:55.953Z,55.20
2017-08-26T14:54:57.647Z,51.20
2017-08-26T14:59:59.457Z,52.40
2017-08-26T15:05:01.152Z,52.40
2017-08-26T15:10:02.828Z,48.30
2017-08-26T15:15:04.499Z,51.60
2017-08-26T15:20:06.098Z,47.00
2017-08-26T15:25:07.816Z,48.90
2017-08-26T15:30:09.517Z,51.30
2017-08-26T15:35:11.165Z,49.30
2017-08-26T15:40:12.862Z,50.50
2017-08-26T15:45:14.609Z,52.20
2017-08-26T15:50:17.333Z,53.20
2017-08-26T15:55:19.054Z,54.70
2017-08-26T16:00:20.753Z,54.80
2017-08-26T16:05:22.433Z,57.40
2017-08-26T16:10:24.107Z,56.70
2017-08-26T16:15:25.800Z,58.20
2017-08-26T16:20:27.474Z,58.80
2017-08-26T16:25:29.169Z,58.00
2017-08-26T16:30:31.412Z,59.40
2017-08-26T16:35:33.178Z,60.70
2017-08-26T16:40:34.882Z,60.10
2017-08-26T16:45:36.502Z,61.60
2017-08-26T16:50:38.199Z,60.70
2017-08-26T16:55:40.750Z,61.80
2017-08-26T17:00:42.493Z,61.50
2017-08-26T17:05:44.171Z,62.00
2017-08-26T17:10:45.840Z,62.80
2017-08-26T17:15:47.512Z,63.30
2017-08-26T17:20:49.394Z,62.50
2017-08-26T17:25:51.165Z,62.80
2017-08-26T17:30:52.816Z,63.80
2017-08-26T17:35:54.498Z,63.80
2017-08-26T17:40:56.118Z,63.30
2017-08-26T17:45:57.856Z,66.30
2017-08-26T17:50:59.505Z,67.60
2017-08-26T17:56:01.249Z,69.30
2017-08-26T18:01:03.052Z,70.70
2017-08-26T18:06:04.752Z,71.30
2017-08-26T18:11:06.384Z,71.50
2017-08-26T18:16:08.033Z,72.80
2017-08-26T18:21:09.770Z,73.00
2017-08-26T18:26:11.492Z,73.70
2017-08-26T18:31:13.193Z,74.80
2017-08-26T18:36:15.198Z,75.50
2017-08-26T18:41:16.945Z,75.40
2017-08-26T18:46:19.405Z,75.80
2017-08-26T18:51:21.172Z,76.70
2017-08-26T18:56:22.890Z,77.10
2017-08-26T19:01:25.272Z,77.60
2017-08-26T19:06:27.460Z,77.70
2017-08-26T19:11:30.185Z,77.90
2017-08-26T19:16:32.949Z,77.80
2017-08-26T19:21:42.122Z,78.50
2017-08-26T19:26:44.838Z,79.50
2017-08-26T19:31:46.552Z,78.90
2017-08-26T19:36:48.381Z,79.40
2017-08-26T19:41:50.051Z,79.20
2017-08-26T19:46:51.728Z,79.70
2017-08-26T19:51:53.328Z,80.00
2017-08-26T19:56:55.024Z,81.00
2017-08-26T20:01:56.781Z,82.10
2017-08-26T20:06:58.360Z,82.50
2017-08-26T20:12:00.037Z,83.00
2017-08-26T20:17:01.744Z,82.70
2017-08-26T20:22:03.452Z,83.20
2017-08-26T20:27:05.069Z,83.10
2017-08-26T20:32:06.833Z,83.40
2017-08-26T20:37:08.671Z,83.50
2017-08-26T20:42:10.297Z,84.00
2017-08-26T20:47:11.960Z,85.40
2017-08-26T20:52:13.633Z,85.10
2017-08-26T20:57:15.345Z,86.00
2017-08-26T21:02:17.920Z,86.70
2017-08-26T21:07:19.719Z,87.40
2017-08-26T21:12:21.464Z,88.50
2017-08-26T21:17:23.137Z,88.40
2017-08-26T21:22:24.818Z,88.70
2017-08-26T21:27:26.511Z,87.90
2017-08-26T21:32:28.286Z,87.80
2017-08-26T21:37:30.063Z,87.70
2017-08-26T21:42:31.708Z,86.60
2017-08-26T21:47:33.385Z,87.70
2017-08-26T21:52:35.030Z,87.70
2017-08-26T21:57:36.737Z,89.60
2017-08-26T22:02:38.401Z,87.60
2017-08-26T22:07:41.321Z,85.90
2017-08-26T22:12:43.631Z,86.90
2017-08-26T22:17:45.392Z,87.50
2017-08-26T22:22:47.004Z,87.40
2017-08-26T22:27:48.737Z,88.90
2017-08-26T22:32:52.058Z,88.90
2017-08-26T22:37:53.689Z,88.10
2017-08-26T22:42:55.363Z,87.50
2017-08-26T22:47:57.028Z,88.60
2017-08-26T22:52:58.814Z,88.80
2017-08-26T22:58:00.485Z,89.50
2017-08-26T23:03:02.258Z,88.90
2017-08-26T23:08:03.933Z,87.80
2017-08-26T23:13:05.632Z,88.10
2017-08-26T23:18:07.256Z,88.70
2017-08-26T23:23:08.977Z,88.60
2017-08-26T23:28:10.729Z,89.90
2017-08-26T23:33:12.426Z,89.10
2017-08-26T23:38:14.098Z,88.10
2017-08-26T23:43:15.828Z,90.30
2017-08-26T23:48:18.569Z,89.90
2017-08-26T23:53:21.351Z,91.30
2017-08-26T23:58:23.014Z,90.10
